Time;durP1;ratioP1;P1;durP2;ratioP2;P2;SDS_P1;SDS_P2;PMS_P1;PMS_P2;Temp;Humidity;BMP_temperature;BMP_pressure;BME280_temperature;BME280_humidity;BME280_pressure;Samples;Min_cycle;Max_cycle;Signal;HPM_P1;HPM_P2
2021/04/21 00:02:13;;;;;;;10.20;7.50;;;;;;;-139.48;100.00;61774.03;5059441;28;20063;-68
2021/04/21 00:04:58;;;;;;;11.27;8.13;;;;;;;-139.48;100.00;61774.03;5073487;28;20122;-68
2021/04/21 00:07:43;;;;;;;11.02;7.72;;;;;;;-139.48;100.00;61774.03;5059556;28;20067;-68
2021/04/21 00:10:27;;;;;;;13.27;7.78;;;;;;;-139.48;100.00;61774.03;5059403;28;20055;-67
2021/04/21 00:13:11;;;;;;;10.88;8.15;;;;;;;-139.48;100.00;61774.03;5073612;28;20090;-68
2021/04/21 00:15:56;;;;;;;10.57;7.57;;;;;;;-139.48;100.00;61774.03;5074546;28;20063;-68
2021/04/21 00:18:43;;;;;;;10.20;7.65;;;;;;;-139.48;100.00;61774.03;5059170;28;20127;-68
2021/04/21 00:21:27;;;;;;;11.75;7.85;;;;;;;-139.48;100.00;61774.03;5073138;28;20102;-68
2021/04/21 00:24:12;;;;;;;11.18;7.50;;;;;;;-139.48;100.00;61774.03;5073637;28;20508;-68
2021/04/21 00:27:01;;;;;;;9.52;7.28;;;;;;;-139.48;100.00;61774.03;5073385;28;20090;-68
2021/04/21 00:29:48;;;;;;;14.27;9.23;;;;;;;-139.48;100.00;61774.03;5073000;28;20199;-68
2021/04/21 00:32:34;;;;;;;12.68;8.85;;;;;;;-139.48;100.00;61774.03;5059062;28;20136;-68
2021/04/21 00:35:27;;;;;;;11.95;8.63;;;;;;;-139.48;100.00;61774.03;5073183;28;20040;-68
2021/04/21 00:38:17;;;;;;;14.20;9.20;;;;;;;-139.48;100.00;61774.03;5072867;28;20522;-68
2021/04/21 00:41:22;;;;;;;14.48;9.70;;;;;;;-139.48;100.00;61774.03;5058950;28;20416;-69
2021/04/21 00:44:18;;;;;;;14.38;9.18;;;;;;;-139.48;100.00;61774.03;5058837;28;20090;-69
2021/04/21 00:47:05;;;;;;;13.20;9.30;;;;;;;-139.48;100.00;61774.03;5072993;28;20047;-69
2021/04/21 00:50:05;;;;;;;13.65;8.70;;;;;;;-139.48;100.00;61774.03;5058852;28;20576;-68
2021/04/21 00:53:00;;;;;;;13.27;9.10;;;;;;;-139.48;100.00;61774.03;5058881;28;20105;-68
2021/04/21 00:56:19;;;;;;;15.48;8.45;;;;;;;-139.48;100.00;61774.03;5058639;28;20043;-67
2021/04/21 00:59:21;;;;;;;11.35;8.32;;;;;;;-139.48;100.00;61774.03;5075970;28;20174;-68
2021/04/21 01:02:06;;;;;;;12.93;8.57;;;;;;;-139.48;100.00;61774.03;5058283;28;20570;-67
2021/04/21 01:04:52;;;;;;;12.88;8.93;;;;;;;-139.48;100.00;61774.03;5058630;28;20050;-69
2021/04/21 01:07:39;;;;;;;12.35;9.27;;;;;;;-139.48;100.00;61774.03;5072849;28;20055;-69
2021/04/21 01:10:27;;;;;;;11.77;9.07;;;;;;;-139.48;100.00;61774.03;5058210;28;20531;-69
2021/04/21 01:13:11;;;;;;;12.45;8.43;;;;;;;-139.48;100.00;61774.03;5072321;28;20129;-68
2021/04/21 01:15:56;;;;;;;14.90;8.68;;;;;;;-139.48;100.00;61774.03;5072589;28;20044;-67
2021/04/21 01:18:42;;;;;;;14.15;9.40;;;;;;;-139.48;100.00;61774.03;5058407;28;20043;-68
2021/04/21 01:21:39;;;;;;;14.27;8.93;;;;;;;-139.48;100.00;61774.03;5072345;28;20086;-68
2021/04/21 01:24:39;;;;;;;12.20;8.43;;;;;;;-139.48;100.00;61774.03;5058279;28;20051;-68
2021/04/21 01:27:41;;;;;;;13.25;8.35;;;;;;;-139.48;100.00;61774.03;5071944;28;20137;-69
2021/04/21 01:30:26;;;;;;;12.82;8.63;;;;;;;-139.48;100.00;61774.03;5073080;28;20043;-68
2021/04/21 01:33:15;;;;;;;11.13;8.60;;;;;;;-139.48;100.00;61774.03;5072446;28;20051;-69
2021/04/21 01:36:02;;;;;;;12.13;9.23;;;;;;;-139.48;100.00;61774.03;5057910;28;20113;-68
2021/04/21 01:38:47;;;;;;;14.25;9.48;;;;;;;-139.48;100.00;61774.03;5058184;28;20505;-68
2021/04/21 01:41:37;;;;;;;15.25;9.60;;;;;;;-139.48;100.00;61774.03;5072544;28;20090;-68
2021/04/21 01:44:27;;;;;;;13.82;10.60;;;;;;;-139.48;100.00;61774.03;5058510;28;20504;-68
2021/04/21 01:47:20;;;;;;;15.35;9.50;;;;;;;-139.48;100.00;61774.03;5071886;28;20574;-68
2021/04/21 01:50:12;;;;;;;14.32;9.82;;;;;;;-139.48;100.00;61774.03;5058252;28;20043;-68
2021/04/21 01:53:27;;;;;;;13.85;9.98;;;;;;;-139.48;100.00;61774.03;5072235;28;20087;-68
2021/04/21 01:56:31;;;;;;;13.45;9.30;;;;;;;-139.48;100.00;61774.03;5072956;28;20046;-69
2021/04/21 01:59:29;;;;;;;16.80;10.17;;;;;;;-139.48;100.00;61774.03;5072110;28;20532;-68
2021/04/21 02:02:16;;;;;;;11.40;8.18;;;;;;;-139.48;100.00;61774.03;5072037;28;20064;-68
2021/04/21 02:05:23;;;;;;;12.50;8.82;;;;;;;-139.48;100.00;61774.03;5073304;28;20098;-68
2021/04/21 02:08:15;;;;;;;17.50;9.43;;;;;;;-139.48;100.00;61774.03;5057831;28;20051;-66
2021/04/21 02:11:13;;;;;;;12.95;9.25;;;;;;;-139.48;100.00;61774.03;5071776;28;20493;-67
2021/04/21 02:14:32;;;;;;;13.95;9.27;;;;;;;-139.48;100.00;61774.03;5081897;22;20413;-69
2021/04/21 02:17:22;;;;;;;12.88;8.93;;;;;;;-139.48;100.00;61774.03;5025908;28;20452;-68
2021/04/21 02:20:37;;;;;;;13.35;9.95;;;;;;;-139.48;100.00;61774.03;5052895;28;20083;-68
2021/04/21 02:23:34;;;;;;;17.83;11.27;;;;;;;-139.48;100.00;61774.03;5051848;28;20179;-68
2021/04/21 02:26:25;;;;;;;13.15;10.13;;;;;;;-139.48;100.00;61774.03;5031890;28;20044;-68
2021/04/21 02:29:18;;;;;;;14.88;10.95;;;;;;;-139.48;100.00;61774.03;5046097;28;20049;-68
2021/04/21 02:32:10;;;;;;;14.30;9.60;;;;;;;-139.48;100.00;61774.03;5031546;28;20040;-69
2021/04/21 02:35:03;;;;;;;12.90;9.00;;;;;;;-139.48;100.00;61774.03;5045831;28;20548;-68
2021/04/21 02:38:14;;;;;;;12.52;9.07;;;;;;;-139.48;100.00;61774.03;5032064;28;20048;-68
2021/04/21 02:41:04;;;;;;;13.73;8.85;;;;;;;-139.48;100.00;61774.03;5034835;28;20064;-68
2021/04/21 02:44:10;;;;;;;12.25;9.35;;;;;;;-139.48;100.00;61774.03;5036365;28;20079;-68
2021/04/21 02:47:05;;;;;;;12.50;9.60;;;;;;;-139.48;100.00;61774.03;5036343;28;20406;-68
2021/04/21 02:50:04;;;;;;;17.42;10.73;;;;;;;-139.48;100.00;61774.03;5049188;28;20107;-68
2021/04/21 02:53:06;;;;;;;16.23;9.13;;;;;;;-139.48;100.00;61774.03;5049591;28;20052;-68
2021/04/21 02:56:17;;;;;;;14.70;9.52;;;;;;;-139.48;100.00;61774.03;5048856;28;20052;-68
2021/04/21 02:59:32;;;;;;;16.58;9.73;;;;;;;-139.48;100.00;61774.03;5048992;28;20095;-68
2021/04/21 03:02:25;;;;;;;14.60;9.50;;;;;;;-139.48;100.00;61774.03;5035806;28;20456;-68
2021/04/21 03:05:15;;;;;;;15.40;9.82;;;;;;;-139.48;100.00;61774.03;5034796;28;20049;-68
2021/04/21 03:08:26;;;;;;;15.38;10.57;;;;;;;-139.48;100.00;61774.03;5049037;28;20072;-68
2021/04/21 03:11:20;;;;;;;15.23;10.80;;;;;;;-139.48;100.00;61774.03;5035567;28;20044;-68
2021/04/21 03:14:07;;;;;;;17.40;12.10;;;;;;;-139.48;100.00;61774.03;5034666;28;20401;-68
2021/04/21 03:16:55;;;;;;;17.45;11.50;;;;;;;-139.48;100.00;61774.03;5048905;28;20037;-68
2021/04/21 03:19:47;;;;;;;17.90;9.75;;;;;;;-139.48;100.00;61774.03;5048852;28;20044;-68
2021/04/21 03:22:33;;;;;;;12.93;9.23;;;;;;;-139.48;100.00;61774.03;5048705;28;20044;-68
2021/04/21 03:25:31;;;;;;;16.52;10.10;;;;;;;-139.48;100.00;61774.03;5035589;28;20079;-68
2021/04/21 03:28:20;;;;;;;15.35;9.90;;;;;;;-139.48;100.00;61774.03;5048933;28;20055;-68
2021/04/21 03:31:07;;;;;;;14.07;9.73;;;;;;;-139.48;100.00;61774.03;5034481;28;20501;-68
2021/04/21 03:34:00;;;;;;;14.50;9.82;;;;;;;-139.48;100.00;61774.03;5034189;28;20056;-68
2021/04/21 03:36:44;;;;;;;15.27;9.98;;;;;;;-139.48;100.00;61774.03;5048553;28;20103;-68
2021/04/21 03:39:28;;;;;;;17.50;11.15;;;;;;;-139.48;100.00;61774.03;5034137;28;20052;-68
2021/04/21 03:42:12;;;;;;;17.08;10.77;;;;;;;-139.48;100.00;61774.03;5035097;28;20045;-68
2021/04/21 03:44:56;;;;;;;14.88;9.48;;;;;;;-139.48;100.00;61774.03;5033960;28;20205;-68
2021/04/21 03:47:40;;;;;;;17.15;10.75;;;;;;;-139.48;100.00;61774.03;5034998;28;20472;-68
2021/04/21 03:50:25;;;;;;;14.18;10.23;;;;;;;-139.48;100.00;61774.03;5047987;28;20087;-69
2021/04/21 03:53:10;;;;;;;18.80;11.27;;;;;;;-139.48;100.00;61774.03;5047877;28;20418;-68
2021/04/21 03:55:55;;;;;;;14.63;10.60;;;;;;;-139.48;100.00;61774.03;5048101;28;20099;-68
2021/04/21 03:58:40;;;;;;;15.77;9.68;;;;;;;-139.48;100.00;61774.03;5033740;28;20048;-68
2021/04/21 04:01:25;;;;;;;17.20;10.13;;;;;;;-139.48;100.00;61774.03;5047717;28;20040;-68
2021/04/21 04:04:11;;;;;;;16.65;10.35;;;;;;;-139.48;100.00;61774.03;5047931;28;20076;-68
2021/04/21 04:06:56;;;;;;;20.35;11.65;;;;;;;-139.48;100.00;61774.03;5047858;28;20051;-68
2021/04/21 04:09:45;;;;;;;17.55;11.20;;;;;;;-139.48;100.00;61774.03;5033505;28;20051;-68
2021/04/21 04:12:32;;;;;;;18.38;11.15;;;;;;;-139.48;100.00;61774.03;5033868;28;20103;-68
2021/04/21 04:15:17;;;;;;;15.95;11.70;;;;;;;-139.48;100.00;61774.03;5033308;28;20156;-68
2021/04/21 04:18:02;;;;;;;17.20;11.85;;;;;;;-139.48;100.00;61774.03;5033399;28;20528;-67
2021/04/21 04:20:48;;;;;;;19.90;11.20;;;;;;;-139.48;100.00;61774.03;5033345;28;20128;-68
2021/04/21 04:23:37;;;;;;;16.45;11.25;;;;;;;-139.48;100.00;61774.03;5034792;28;20395;-68
2021/04/21 04:26:21;;;;;;;16.65;11.23;;;;;;;-139.48;100.00;61774.03;5034200;28;20421;-68
2021/04/21 04:29:05;;;;;;;17.85;11.95;;;;;;;-139.48;100.00;61774.03;5047435;28;20055;-68
2021/04/21 04:31:52;;;;;;;20.58;12.43;;;;;;;-139.48;100.00;61774.03;5047350;28;20125;-68
2021/04/21 04:34:36;;;;;;;19.23;11.50;;;;;;;-139.48;100.00;61774.03;5047359;28;20060;-68
2021/04/21 04:37:22;;;;;;;16.08;11.55;;;;;;;-139.48;100.00;61774.03;5047400;28;20045;-67
2021/04/21 04:40:15;;;;;;;17.40;11.52;;;;;;;-139.48;100.00;61774.03;5034130;28;20102;-68
2021/04/21 04:43:00;;;;;;;17.73;11.00;;;;;;;-139.48;100.00;61774.03;5032934;28;20472;-68
2021/04/21 04:45:50;;;;;;;17.50;11.77;;;;;;;-139.48;100.00;61774.03;5033888;28;20092;-68
2021/04/21 04:48:46;;;;;;;17.73;10.88;;;;;;;-139.48;100.00;61774.03;5046862;28;20048;-67
2021/04/21 04:51:33;;;;;;;17.33;11.13;;;;;;;-139.48;100.00;61774.03;5046843;28;20099;-68
2021/04/21 04:54:17;;;;;;;17.92;11.65;;;;;;;-139.48;100.00;61774.03;5032963;28;20470;-68
2021/04/21 04:57:02;;;;;;;16.50;11.48;;;;;;;-139.48;100.00;61774.03;5033260;28;20111;-68
2021/04/21 04:59:47;;;;;;;18.90;11.85;;;;;;;-139.48;100.00;61774.03;5033772;28;20126;-68
2021/04/21 05:02:41;;;;;;;17.88;12.25;;;;;;;-139.48;100.00;61774.03;5032957;28;20505;-67
2021/04/21 05:05:27;;;;;;;16.38;10.98;;;;;;;-139.48;100.00;61774.03;5046825;28;20049;-68
2021/04/21 05:08:13;;;;;;;18.20;11.23;;;;;;;-139.48;100.00;61774.03;5033806;28;20047;-68
2021/04/21 05:11:09;;;;;;;16.40;11.00;;;;;;;-139.48;100.00;61774.03;5046474;28;20418;-68
2021/04/21 05:13:53;;;;;;;19.08;12.05;;;;;;;-139.48;100.00;61774.03;5046487;28;20091;-68
2021/04/21 05:16:54;;;;;;;17.92;11.80;;;;;;;-139.48;100.00;61774.03;5032615;28;20413;-68
2021/04/21 05:20:19;;;;;;;20.92;13.82;;;;;;;-139.48;100.00;61774.03;5033908;28;20099;-68
2021/04/21 05:23:06;;;;;;;21.30;13.27;;;;;;;-139.48;100.00;61774.03;5032594;28;20125;-67
2021/04/21 05:26:20;;;;;;;18.20;12.55;;;;;;;-139.48;100.00;61774.03;5033414;28;20482;-68
2021/04/21 05:29:34;;;;;;;20.80;13.50;;;;;;;-139.48;100.00;61774.03;5033465;28;20405;-67
2021/04/21 05:32:43;;;;;;;21.88;13.30;;;;;;;-139.48;100.00;61774.03;5033400;28;20091;-68
2021/04/21 05:36:02;;;;;;;18.63;12.98;;;;;;;-139.48;100.00;61774.03;5033035;28;20052;-68
2021/04/21 05:39:10;;;;;;;21.60;13.00;;;;;;;-139.48;100.00;61774.03;5033353;28;20103;-67
2021/04/21 05:42:10;;;;;;;20.50;12.18;;;;;;;-139.48;100.00;61774.03;5033247;28;20048;-68
2021/04/21 05:45:31;;;;;;;19.10;12.65;;;;;;;-139.48;100.00;61774.03;5046278;28;20075;-68
2021/04/21 05:48:49;;;;;;;17.77;11.95;;;;;;;-139.48;100.00;61774.03;5033238;28;20053;-67
2021/04/21 05:51:59;;;;;;;21.52;13.27;;;;;;;-139.48;100.00;61774.03;5033022;28;20559;-67
2021/04/21 05:55:11;;;;;;;19.00;12.85;;;;;;;-139.48;100.00;61774.03;5032158;28;20445;-67
2021/04/21 05:58:45;;;;;;;23.15;14.82;;;;;;;-139.48;100.00;61774.03;5033150;28;20197;-67
2021/04/21 06:01:34;;;;;;;27.70;17.67;;;;;;;-139.48;100.00;61774.03;4997527;28;20044;-68
2021/04/21 06:04:18;;;;;;;25.48;17.50;;;;;;;-139.48;100.00;61774.03;5032095;28;20060;-68
2021/04/21 06:07:06;;;;;;;25.23;17.98;;;;;;;-139.48;100.00;61774.03;5032882;28;20052;-67
2021/04/21 06:09:50;;;;;;;27.85;17.10;;;;;;;-139.48;100.00;61774.03;5032097;28;20088;-68
2021/04/21 06:12:34;;;;;;;25.95;16.75;;;;;;;-139.48;100.00;61774.03;5032117;28;20091;-67
2021/04/21 06:15:23;;;;;;;27.50;18.42;;;;;;;-139.48;100.00;61774.03;5049488;28;20052;-67
2021/04/21 06:18:09;;;;;;;23.45;16.50;;;;;;;-139.48;100.00;61774.03;5036912;28;20048;-67
2021/04/21 06:20:53;;;;;;;25.38;16.27;;;;;;;-139.48;100.00;61774.03;5049884;28;20053;-68
2021/04/21 06:23:37;;;;;;;27.70;16.73;;;;;;;-139.48;100.00;61774.03;5049946;28;20556;-68
2021/04/21 06:26:26;;;;;;;25.90;15.45;;;;;;;-139.48;100.00;61774.03;5049855;28;20052;-68
2021/04/21 06:29:11;;;;;;;25.63;15.60;;;;;;;-139.48;100.00;61774.03;5036888;28;20725;-68
2021/04/21 06:32:01;;;;;;;27.38;16.30;;;;;;;-139.48;100.00;61774.03;5021981;28;20060;-67
2021/04/21 06:34:45;;;;;;;24.05;16.58;;;;;;;-139.48;100.00;61774.03;5036446;28;20128;-68
2021/04/21 06:37:29;;;;;;;25.15;16.23;;;;;;;-139.48;100.00;61774.03;5036520;28;20094;-68
2021/04/21 06:40:14;;;;;;;27.20;16.48;;;;;;;-139.48;100.00;61774.03;5049328;28;20075;-68
2021/04/21 06:42:58;;;;;;;22.70;15.85;;;;;;;-139.48;100.00;61774.03;5049863;28;20083;-68
2021/04/21 06:45:50;;;;;;;27.13;16.38;;;;;;;-139.48;100.00;61774.03;5049300;28;20075;-68
2021/04/21 06:48:36;;;;;;;22.55;16.33;;;;;;;-139.48;100.00;61774.03;5049573;28;20099;-68
2021/04/21 06:51:24;;;;;;;22.80;15.88;;;;;;;-139.48;100.00;61774.03;5036310;28;20095;-68
2021/04/21 06:54:08;;;;;;;30.38;16.25;;;;;;;-139.48;100.00;61774.03;5035112;28;20184;-68
2021/04/21 06:56:52;;;;;;;24.73;15.75;;;;;;;-139.48;100.00;61774.03;5049235;28;20064;-68
2021/04/21 06:59:39;;;;;;;23.02;15.55;;;;;;;-139.48;100.00;61774.03;5035305;28;20064;-68
2021/04/21 07:02:43;;;;;;;23.20;15.00;;;;;;;-139.48;100.00;61774.03;5048796;28;20052;-68
2021/04/21 07:05:30;;;;;;;24.02;15.48;;;;;;;-139.48;100.00;61774.03;5034883;28;20056;-67
2021/04/21 07:08:16;;;;;;;21.58;14.68;;;;;;;-139.48;100.00;61774.03;5036033;28;20048;-68
2021/04/21 07:11:01;;;;;;;21.45;14.80;;;;;;;-139.48;100.00;61774.03;5048782;28;20079;-68
2021/04/21 07:13:47;;;;;;;21.27;14.95;;;;;;;-139.48;100.00;61774.03;5034622;28;20096;-68
2021/04/21 07:16:32;;;;;;;20.98;15.23;;;;;;;-139.48;100.00;61774.03;5035814;28;20096;-68
2021/04/21 07:19:21;;;;;;;22.85;15.68;;;;;;;-139.48;100.00;61774.03;5034745;28;20111;-68
2021/04/21 07:22:05;;;;;;;21.50;15.02;;;;;;;-139.48;100.00;61774.03;5034743;28;20052;-68
2021/04/21 07:24:49;;;;;;;22.33;15.68;;;;;;;-139.48;100.00;61774.03;5048176;28;20188;-68
2021/04/21 07:27:33;;;;;;;21.23;14.48;;;;;;;-139.48;100.00;61774.03;5048530;28;20458;-68
2021/04/21 07:30:27;;;;;;;;;;;;;;;-139.48;100.00;61774.03;5048729;28;20549;-68
2021/04/21 07:33:11;;;;;;;20.38;14.32;;;;;;;-139.48;100.00;61774.03;5035500;28;20333;-67
2021/04/21 07:36:06;;;;;;;23.95;14.68;;;;;;;-139.48;100.00;61774.03;5048394;28;20414;-67
2021/04/21 07:38:52;;;;;;;19.42;14.27;;;;;;;-139.48;100.00;61774.03;5048780;28;20091;-67
2021/04/21 07:41:44;;;;;;;19.92;13.82;;;;;;;-139.48;100.00;61774.03;5020054;28;20076;-67
2021/04/21 07:44:50;;;;;;;23.23;15.38;;;;;;;-139.48;100.00;61774.03;5048121;28;20048;-67
2021/04/21 07:47:35;;;;;;;24.20;14.70;;;;;;;-139.48;100.00;61774.03;5046103;28;20053;-67
2021/04/21 07:50:27;;;;;;;21.75;14.48;;;;;;;-139.48;100.00;61774.03;5048408;28;20052;-67
2021/04/21 07:53:14;;;;;;;19.33;14.10;;;;;;;-139.48;100.00;61774.03;5048002;28;20056;-67
2021/04/21 07:56:04;;;;;;;22.00;14.98;;;;;;;-139.48;100.00;61774.03;5033684;28;20076;-67
2021/04/21 07:58:50;;;;;;;23.67;15.18;;;;;;;-139.48;100.00;61774.03;5034689;28;20049;-67
2021/04/21 08:01:34;;;;;;;25.73;16.95;;;;;;;-139.48;100.00;61774.03;5047775;28;20603;-67
2021/04/21 08:04:26;;;;;;;25.65;16.30;;;;;;;-139.48;100.00;61774.03;5047794;28;20049;-67
2021/04/21 08:07:11;;;;;;;24.30;15.13;;;;;;;-139.48;100.00;61774.03;5047608;28;20114;-67
2021/04/21 08:09:55;;;;;;;22.83;16.13;;;;;;;-139.48;100.00;61774.03;5047924;28;20048;-67
2021/04/21 08:12:39;;;;;;;;;;;;;;;-139.48;100.00;61774.03;5047896;28;20044;-67
2021/04/21 08:15:30;;;;;;;28.27;17.35;;;;;;;-139.48;100.00;61774.03;5033276;28;20432;-67
2021/04/21 08:18:15;;;;;;;25.27;16.00;;;;;;;-139.48;100.00;61774.03;5047637;28;20095;-67
2021/04/21 08:20:59;;;;;;;25.23;16.13;;;;;;;-139.48;100.00;61774.03;5034389;28;20469;-67
2021/04/21 08:23:42;;;;;;;24.67;16.13;;;;;;;-139.48;100.00;61774.03;5047769;28;20107;-67
2021/04/21 08:26:26;;;;;;;25.90;16.83;;;;;;;-139.48;100.00;61774.03;5033496;28;20079;-67
2021/04/21 08:29:12;;;;;;;24.27;16.27;;;;;;;-139.48;100.00;61774.03;5034329;28;20461;-68
2021/04/21 08:31:56;;;;;;;24.10;15.40;;;;;;;-139.48;100.00;61774.03;5047093;28;20072;-68
2021/04/21 08:34:40;;;;;;;23.55;16.35;;;;;;;-139.48;100.00;61774.03;5034271;28;20436;-68
2021/04/21 08:37:24;;;;;;;21.65;15.15;;;;;;;-139.48;100.00;61774.03;5033306;28;20103;-68
2021/04/21 08:40:10;;;;;;;23.98;15.82;;;;;;;-139.48;100.00;61774.03;5034039;28;20107;-68
2021/04/21 08:42:57;;;;;;;24.63;17.30;;;;;;;-139.48;100.00;61774.03;5034192;28;20080;-68
2021/04/21 08:45:42;;;;;;;25.17;15.90;;;;;;;-139.48;100.00;61774.03;5046924;28;20152;-68
2021/04/21 08:48:28;;;;;;;25.00;15.82;;;;;;;-139.48;100.00;61774.03;5046976;28;20175;-68
2021/04/21 08:51:17;;;;;;;21.63;16.40;;;;;;;-139.48;100.00;61774.03;5046977;28;20102;-68
2021/04/21 08:54:06;;;;;;;25.70;16.27;;;;;;;-139.48;100.00;61774.03;5047017;28;20088;-67
2021/04/21 08:56:51;;;;;;;23.65;16.30;;;;;;;-139.48;100.00;61774.03;5032982;28;20078;-68
2021/04/21 08:59:38;;;;;;;25.38;16.85;;;;;;;-139.48;100.00;61774.03;5032923;28;20056;-68
2021/04/21 09:02:22;;;;;;;25.48;15.50;;;;;;;-139.48;100.00;61774.03;5033774;28;20138;-68
2021/04/21 09:05:07;;;;;;;25.85;16.67;;;;;;;-139.48;100.00;61774.03;5033572;28;20052;-68
2021/04/21 09:07:52;;;;;;;24.45;16.42;;;;;;;-139.48;100.00;61774.03;5033758;28;20057;-67
2021/04/21 09:10:39;;;;;;;;;;;;;;;-139.48;100.00;61774.03;5046891;28;20103;-68
2021/04/21 09:13:23;;;;;;;25.95;17.35;;;;;;;-139.48;100.00;61774.03;5032843;28;20027;-68
2021/04/21 09:16:07;;;;;;;21.60;16.15;;;;;;;-139.48;100.00;61774.03;5033214;28;20108;-68
2021/04/21 09:18:52;;;;;;;22.13;16.05;;;;;;;-139.48;100.00;61774.03;5032647;28;20064;-68
2021/04/21 09:21:36;;;;;;;24.58;17.10;;;;;;;-139.48;100.00;61774.03;5033443;28;20572;-68
2021/04/21 09:24:27;;;;;;;23.70;15.70;;;;;;;-139.48;100.00;61774.03;5033453;28;20441;-68
2021/04/21 09:27:26;;;;;;;23.40;16.38;;;;;;;-139.48;100.00;61774.03;5033446;28;20096;-68
2021/04/21 09:30:09;;;;;;;27.42;16.00;;;;;;;-139.48;100.00;61774.03;5046352;28;20057;-68
2021/04/21 09:32:56;;;;;;;24.20;16.67;;;;;;;-139.48;100.00;61774.03;5046729;28;20052;-69
2021/04/21 09:35:41;;;;;;;19.58;15.05;;;;;;;-139.48;100.00;61774.03;5033062;28;20102;-69
2021/04/21 09:38:27;;;;;;;22.88;15.45;;;;;;;-139.48;100.00;61774.03;5032092;28;20055;-68
2021/04/21 09:41:16;;;;;;;21.45;14.02;;;;;;;-139.48;100.00;61774.03;5018135;28;20513;-68
2021/04/21 09:44:24;;;;;;;19.52;14.38;;;;;;;-139.48;100.00;61774.03;5018338;28;20099;-67
2021/04/21 09:47:13;;;;;;;19.08;14.43;;;;;;;-139.48;100.00;61774.03;5045730;28;20044;-68
2021/04/21 09:49:58;;;;;;;22.17;16.50;;;;;;;-139.48;100.00;61774.03;5035527;28;20048;-68
2021/04/21 09:52:43;;;;;;;26.98;16.02;;;;;;;-139.48;100.00;61774.03;5037347;28;20098;-69
2021/04/21 09:55:30;;;;;;;20.92;15.85;;;;;;;-139.48;100.00;61774.03;5037303;28;20056;-66
2021/04/21 09:58:31;;;;;;;20.98;14.02;;;;;;;-139.48;100.00;61774.03;5049940;28;20091;-66
2021/04/21 10:01:28;;;;;;;21.23;15.90;;;;;;;-139.48;100.00;61774.03;5037046;28;20068;-66
2021/04/21 10:04:15;;;;;;;22.40;15.20;;;;;;;-139.48;100.00;61774.03;5037085;28;20486;-66
2021/04/21 10:07:01;;;;;;;20.13;16.00;;;;;;;-139.48;100.00;61774.03;5036838;28;20072;-66
2021/04/21 10:09:56;;;;;;;19.15;15.32;;;;;;;-139.48;100.00;61774.03;5035774;28;20145;-66
2021/04/21 10:12:40;;;;;;;21.88;15.73;;;;;;;-139.48;100.00;61774.03;5049192;28;20045;-66
2021/04/21 10:15:29;;;;;;;16.67;13.85;;;;;;;-139.48;100.00;61774.03;5049874;28;20103;-66
2021/04/21 10:18:13;;;;;;;16.85;14.27;;;;;;;-139.48;100.00;61774.03;5035916;28;20064;-66
2021/04/21 10:20:58;;;;;;;17.00;14.43;;;;;;;-139.48;100.00;61774.03;5036652;28;20067;-66
2021/04/21 10:23:47;;;;;;;16.92;11.88;;;;;;;-139.48;100.00;61774.03;5035926;28;20597;-68
2021/04/21 10:26:31;;;;;;;17.15;11.32;;;;;;;-139.48;100.00;61774.03;5049901;28;20426;-67
2021/04/21 10:29:15;;;;;;;15.15;13.55;;;;;;;-139.48;100.00;61774.03;5049908;28;20569;-67
2021/04/21 10:32:00;;;;;;;15.68;13.98;;;;;;;-139.48;100.00;61774.03;5049472;28;20097;-67
2021/04/21 10:34:44;;;;;;;15.98;13.13;;;;;;;-139.48;100.00;61774.03;5049293;28;20103;-67
2021/04/21 10:37:35;;;;;;;18.65;12.50;;;;;;;-139.48;100.00;61774.03;5035817;28;20501;-67
2021/04/21 10:40:30;;;;;;;15.07;13.15;;;;;;;-139.48;100.00;61774.03;5035442;28;20119;-67
2021/04/21 10:43:14;;;;;;;14.23;12.35;;;;;;;-139.48;100.00;61774.03;5036403;28;20064;-66
2021/04/21 10:45:58;;;;;;;15.27;11.93;;;;;;;-139.48;100.00;61774.03;5049184;28;20055;-67
2021/04/21 10:48:44;;;;;;;15.13;11.23;;;;;;;-139.48;100.00;61774.03;5049259;28;20049;-67
2021/04/21 10:51:33;;;;;;;18.58;14.63;;;;;;;-139.48;100.00;61774.03;5035867;28;20422;-66
2021/04/21 10:54:31;;;;;;;16.05;13.02;;;;;;;-139.48;100.00;61774.03;5035833;28;20406;-67
2021/04/21 10:57:21;;;;;;;12.50;10.02;;;;;;;-139.48;100.00;61774.03;5034880;28;20047;-67
2021/04/21 11:00:15;;;;;;;14.43;12.63;;;;;;;-139.48;100.00;61774.03;5034680;28;20513;-68
2021/04/21 11:03:03;;;;;;;18.02;13.00;;;;;;;-139.48;100.00;61774.03;5035840;28;20037;-67
2021/04/21 11:05:51;;;;;;;14.40;12.13;;;;;;;-139.48;100.00;61774.03;5048738;28;20048;-67
2021/04/21 11:08:55;;;;;;;13.10;11.43;;;;;;;-139.48;100.00;61774.03;5048801;28;20048;-67
2021/04/21 11:11:42;;;;;;;13.65;10.95;;;;;;;-139.48;100.00;61774.03;5089266;22;20139;-70
2021/04/21 11:15:05;;;;;;;12.32;10.82;;;;;;;-139.48;100.00;61774.03;5080542;28;20055;-70
2021/04/21 11:18:08;;;;;;;11.27;10.03;;;;;;;-139.48;100.00;61774.03;5053274;28;20052;-70
2021/04/21 11:20:57;;;;;;;12.45;10.35;;;;;;;-139.48;100.00;61774.03;5053404;28;20289;-70
2021/04/21 11:24:08;;;;;;;11.15;9.88;;;;;;;-139.48;100.00;61774.03;5075541;28;20051;-69
2021/04/21 11:26:52;;;;;;;11.43;9.40;;;;;;;-139.48;100.00;61774.03;5074440;28;20048;-70
2021/04/21 11:29:36;;;;;;;9.80;8.80;;;;;;;-139.48;100.00;61774.03;5075030;28;20051;-70
2021/04/21 11:32:20;;;;;;;11.07;9.88;;;;;;;-139.48;100.00;61774.03;5074833;28;20070;-71
2021/04/21 11:35:27;;;;;;;10.73;9.57;;;;;;;-139.48;100.00;61774.03;5074210;28;20071;-70
2021/04/21 11:38:40;;;;;;;11.02;9.05;;;;;;;-139.48;100.00;61774.03;5074273;28;20047;-70
2021/04/21 11:41:24;;;;;;;9.45;8.55;;;;;;;-139.48;100.00;61774.03;5060174;28;20051;-70
2021/04/21 11:44:09;;;;;;;8.77;7.88;;;;;;;-139.48;100.00;61774.03;5059977;28;20056;-70
2021/04/21 11:46:59;;;;;;;7.97;7.20;;;;;;;-139.48;100.00;61774.03;5074115;28;20103;-70
2021/04/21 11:50:06;;;;;;;11.25;9.20;;;;;;;-139.48;100.00;61774.03;5073999;28;20169;-70
2021/04/21 11:53:02;;;;;;;10.02;9.05;;;;;;;-139.48;100.00;61774.03;5059394;28;20040;-70
2021/04/21 11:55:55;;;;;;;10.57;9.30;;;;;;;-139.48;100.00;61774.03;5073610;28;20106;-70
2021/04/21 11:58:40;;;;;;;9.93;8.93;;;;;;;-139.48;100.00;61774.03;5074069;28;20457;-70
2021/04/21 12:01:27;;;;;;;12.30;9.07;;;;;;;-139.48;100.00;61774.03;5074401;28;20047;-71
2021/04/21 12:04:11;;;;;;;10.27;9.18;;;;;;;-139.48;100.00;61774.03;5073794;28;20047;-71
2021/04/21 12:06:55;;;;;;;8.45;7.63;;;;;;;-139.48;100.00;61774.03;5073732;28;20052;-70
2021/04/21 12:09:40;;;;;;;8.43;7.63;;;;;;;-139.48;100.00;61774.03;5073406;28;20177;-70
2021/04/21 12:12:25;;;;;;;8.93;8.02;;;;;;;-139.48;100.00;61774.03;5072862;28;20048;-70
2021/04/21 12:15:10;;;;;;;9.25;8.15;;;;;;;-139.48;100.00;61774.03;5073280;28;20093;-70
2021/04/21 12:17:56;;;;;;;8.25;7.45;;;;;;;-139.48;100.00;61774.03;5074615;28;20046;-70
2021/04/21 12:20:40;;;;;;;10.18;8.45;;;;;;;-139.48;100.00;61774.03;5073439;28;20405;-70
2021/04/21 12:23:25;;;;;;;10.77;9.02;;;;;;;-139.48;100.00;61774.03;5074469;28;20143;-70
2021/04/21 12:26:19;;;;;;;10.23;9.07;;;;;;;-139.48;100.00;61774.03;5073072;28;20067;-70
2021/04/21 12:29:15;;;;;;;9.13;8.18;;;;;;;-139.48;100.00;61774.03;5074063;28;20052;-69
2021/04/21 12:32:04;;;;;;;11.60;9.13;;;;;;;-139.48;100.00;61774.03;5073086;28;20476;-69
2021/04/21 12:34:48;;;;;;;12.93;9.93;;;;;;;-139.48;100.00;61774.03;5058939;28;20166;-71
2021/04/21 12:37:32;;;;;;;13.23;10.10;;;;;;;-139.48;100.00;61774.03;5073163;28;20405;-71
2021/04/21 12:40:22;;;;;;;11.68;9.10;;;;;;;-139.48;100.00;61774.03;5073963;28;20054;-71
2021/04/21 12:43:18;;;;;;;9.93;8.93;;;;;;;-139.48;100.00;61774.03;5072613;28;20050;-71